Time;durP1;ratioP1;P1;durP2;ratioP2;P2;SDS_P1;SDS_P2;PMS_P1;PMS_P2;Temp;Humidity;BMP_temperature;BMP_pressure;BME280_temperature;BME280_humidity;BME280_pressure;Samples;Min_cycle;Max_cycle;Signal;HPM_P1;HPM_P2
2021/11/12 00:03:46;;;;;;;0.20;0.20;;;;;;;13.28;62.61;102318.50;5063886;28;20063;-86
2021/11/12 00:14:32;;;;;;;0.20;0.20;;;;;;;13.24;62.17;102306.09;5065641;28;20087;-86
2021/11/12 00:16:59;;;;;;;0.75;0.75;;;;;;;13.24;62.47;102303.44;5056543;28;20072;-87
2021/11/12 00:19:26;;;;;;;0.10;0.10;;;;;;;13.24;62.66;102304.31;5064117;28;20025;-87
2021/11/12 00:21:53;;;;;;;1.55;1.35;;;;;;;13.25;62.30;102298.09;5065591;28;20060;-87
2021/11/12 00:24:19;;;;;;;0.13;0.13;;;;;;;13.23;62.72;102299.91;5059140;28;20064;-87
2021/11/12 00:26:46;;;;;;;0.15;0.15;;;;;;;13.21;62.51;102301.69;5059967;28;20036;-87
2021/11/12 00:29:13;;;;;;;0.20;0.20;;;;;;;13.25;62.13;102298.09;5056754;28;20025;-88
2021/11/12 00:31:58;;;;;;;0.70;0.70;;;;;;;13.25;62.53;102297.22;5061026;28;20025;-88
2021/11/12 00:34:50;;;;;;;1.45;1.33;;;;;;;13.24;62.77;102285.69;5055557;28;20025;-87
2021/11/12 00:40:06;;;;;;;0.50;0.50;;;;;;;13.21;62.40;102280.41;5072499;27;20480;-87
2021/11/12 00:43:10;;;;;;;0.47;0.47;;;;;;;13.23;62.27;102277.72;5041885;28;20481;-87
2021/11/12 00:45:22;;;;;;;0.65;0.65;;;;;;;13.20;62.11;102280.41;5040389;28;20057;-87
2021/11/12 00:47:55;;;;;;;0.10;0.10;;;;;;;13.18;62.33;102279.53;5035828;28;20053;-87
2021/11/12 00:55:57;;;;;;;0.82;0.82;;;;;;;13.13;62.54;102270.72;5078057;27;20425;-85
2021/11/12 00:58:23;;;;;;;0.22;0.20;;;;;;;13.11;62.25;102273.41;5066101;28;20028;-85
2021/11/12 01:00:50;;;;;;;4.57;2.30;;;;;;;13.14;62.12;102262.72;5057077;28;20139;-85
2021/11/12 01:03:18;;;;;;;0.20;0.20;;;;;;;13.14;62.72;102262.72;5053933;28;20044;-86
2021/11/12 01:05:44;;;;;;;0.22;0.22;;;;;;;13.14;62.85;102268.03;5052281;28;20059;-86
2021/11/12 01:08:11;;;;;;;0.10;0.10;;;;;;;13.10;62.13;102269.84;5057331;28;20028;-85
2021/11/12 01:10:37;;;;;;;0.57;0.57;;;;;;;13.13;62.48;102262.72;5055952;28;20056;-86
2021/11/12 01:13:04;;;;;;;0.40;0.40;;;;;;;13.10;62.48;102256.53;5057026;28;20040;-86
2021/11/12 01:15:31;;;;;;;0.10;0.10;;;;;;;13.09;62.36;102265.41;5061370;28;20025;-86
2021/11/12 01:17:57;;;;;;;0.30;0.30;;;;;;;13.06;62.09;102253.88;5054239;28;20142;-86
2021/11/12 01:20:23;;;;;;;5.05;1.85;;;;;;;13.06;62.79;102260.13;5054271;28;20068;-86
2021/11/12 01:22:50;;;;;;;0.60;0.60;;;;;;;13.07;62.54;102263.66;5051570;28;20040;-86
2021/11/12 01:25:19;;;;;;;0.68;0.68;;;;;;;13.06;62.51;102262.78;5052399;28;20064;-85
2021/11/12 01:27:45;;;;;;;0.20;0.20;;;;;;;13.05;62.68;102249.50;5051139;28;20114;-86
2021/11/12 01:30:14;;;;;;;0.75;0.75;;;;;;;13.02;62.65;102246.84;5048903;28;21516;-86
2021/11/12 01:32:41;;;;;;;0.10;0.10;;;;;;;13.01;62.45;102248.63;5055165;28;20029;-86
2021/11/12 01:35:09;;;;;;;0.20;0.20;;;;;;;13.01;62.28;102240.66;5054749;28;20040;-86
2021/11/12 01:37:36;;;;;;;0.30;0.30;;;;;;;12.94;62.56;102237.13;5057380;28;20036;-86
2021/11/12 01:40:07;;;;;;;0.30;0.30;;;;;;;12.99;62.13;102241.56;5059075;28;20498;-86
2021/11/12 01:43:06;;;;;;;5.82;2.83;;;;;;;13.05;62.08;102238.84;5063085;28;20186;-86
2021/11/12 01:45:47;;;;;;;0.20;0.20;;;;;;;12.99;62.80;102228.25;5058571;28;20020;-86
2021/11/12 01:51:06;;;;;;;0.20;0.20;;;;;;;12.93;62.45;102224.75;5067191;27;20431;-85
2021/11/12 01:53:38;;;;;;;0.45;0.45;;;;;;;12.91;62.81;102217.66;5054007;28;20056;-85
2021/11/12 01:59:25;;;;;;;0.10;0.10;;;;;;;12.85;62.54;102213.28;5047852;28;20471;-85
2021/11/12 02:04:31;;;;;;;0.50;0.50;;;;;;;12.83;62.91;102220.38;5057142;27;20478;-85
2021/11/12 02:06:59;;;;;;;0.15;0.15;;;;;;;12.81;62.82;102221.28;5052296;28;20127;-85
2021/11/12 02:09:26;;;;;;;1.10;0.65;;;;;;;12.78;63.06;102211.56;5047613;28;20034;-85
2021/11/12 02:11:59;;;;;;;4.50;2.10;;;;;;;12.82;62.95;102213.28;5049602;28;20044;-86
2021/11/12 02:14:26;;;;;;;0.10;0.10;;;;;;;12.77;63.21;102210.69;5051966;28;20025;-86
2021/11/12 02:17:01;;;;;;;0.28;0.28;;;;;;;12.79;62.83;102208.00;5054366;28;20060;-85
2021/11/12 02:19:28;;;;;;;0.60;0.60;;;;;;;12.78;63.10;102211.56;5056312;28;20028;-86
2021/11/12 02:22:06;;;;;;;0.10;0.10;;;;;;;12.77;63.59;102210.69;5043479;28;20025;-85
2021/11/12 02:24:35;;;;;;;0.85;0.85;;;;;;;12.77;63.47;102210.69;5053794;28;20021;-86
2021/11/12 02:27:03;;;;;;;0.35;0.35;;;;;;;12.73;63.34;102195.63;5053701;28;20496;-85
2021/11/12 02:29:31;;;;;;;0.10;0.10;;;;;;;12.73;63.35;102197.41;5055491;28;20033;-85
2021/11/12 02:31:57;;;;;;;0.38;0.38;;;;;;;12.75;63.49;102198.28;5060010;28;20056;-85
2021/11/12 02:34:24;;;;;;;0.28;0.28;;;;;;;12.74;63.45;102192.06;5043383;28;20480;-85
2021/11/12 02:36:50;;;;;;;0.55;0.55;;;;;;;12.75;63.31;102196.50;5048686;28;20523;-85
2021/11/12 02:39:17;;;;;;;0.95;0.60;;;;;;;12.72;63.25;102190.31;5042785;28;20393;-85
2021/11/12 02:41:44;;;;;;;0.10;0.10;;;;;;;12.71;63.43;102191.22;5039647;28;20057;-86
2021/11/12 02:44:10;;;;;;;0.47;0.47;;;;;;;12.72;63.50;102179.69;5044033;28;20502;-85
2021/11/12 02:46:37;;;;;;;0.15;0.15;;;;;;;12.68;63.27;102175.28;5053300;28;20049;-86
2021/11/12 02:49:04;;;;;;;0.10;0.10;;;;;;;12.67;63.37;102165.53;5054265;28;20112;-86
2021/11/12 02:51:34;;;;;;;1.30;1.27;;;;;;;12.61;63.80;102162.03;5049529;28;20045;-85
2021/11/12 02:54:03;;;;;;;0.35;0.35;;;;;;;12.60;63.75;102167.38;5035994;28;20479;-86
2021/11/12 02:56:31;;;;;;;0.68;0.68;;;;;;;12.60;63.60;102164.72;5048392;28;20112;-86
2021/11/12 02:59:06;;;;;;;0.10;0.10;;;;;;;12.64;63.51;102165.56;5049115;28;20158;-86
2021/11/12 03:01:35;;;;;;;0.20;0.20;;;;;;;12.61;63.48;102169.13;5052349;28;20072;-86
2021/11/12 03:04:03;;;;;;;0.30;0.30;;;;;;;12.56;64.07;102163.84;5059697;28;20040;-86
2021/11/12 03:06:32;;;;;;;1.85;1.75;;;;;;;12.60;63.72;102157.59;5054105;28;20029;-86
2021/11/12 03:09:01;;;;;;;1.10;1.00;;;;;;;12.57;63.60;102152.34;5054591;28;20032;-86
2021/11/12 03:11:27;;;;;;;0.82;0.77;;;;;;;12.59;63.56;102147.84;5045338;28;20044;-86
2021/11/12 03:13:54;;;;;;;1.65;1.65;;;;;;;12.56;63.53;102147.00;5055418;28;20041;-86
2021/11/12 03:16:20;;;;;;;0.77;0.77;;;;;;;12.57;63.73;102144.34;5044922;28;20103;-86
2021/11/12 03:18:47;;;;;;;0.03;0.03;;;;;;;12.58;63.79;102146.09;5042942;28;20040;-86
2021/11/12 03:21:17;;;;;;;0.55;0.55;;;;;;;12.56;63.05;102147.00;5046502;28;20043;-86
2021/11/12 03:23:50;;;;;;;1.92;1.83;;;;;;;12.56;63.48;102152.31;5041052;28;20433;-86
2021/11/12 03:26:25;;;;;;;0.57;0.57;;;;;;;12.49;63.91;102138.19;5037005;28;20387;-86
2021/11/12 03:29:15;;;;;;;1.90;1.65;;;;;;;12.53;63.39;102126.63;5021292;28;20425;-86
2021/11/12 04:02:11;;;;;;;0.40;0.40;;;;;;;11.92;63.20;102051.72;5017814;28;20036;-77
2021/11/12 04:21:43;;;;;;;6.50;2.75;;;;;;;11.14;63.54;102022.03;5039436;27;2256210;-77
2021/11/12 05:11:27;;;;;;;0.82;0.82;;;;;;;9.97;65.25;102007.13;5059941;27;20908;-78
2021/11/12 05:26:04;;;;;;;5.22;2.92;;;;;;;9.68;65.37;101996.47;5060905;28;20400;-81
2021/11/12 05:33:41;;;;;;;1.38;1.38;;;;;;;9.52;65.39;101988.50;5057915;28;20047;-76
2021/11/12 05:43:35;;;;;;;4.38;1.55;;;;;;;9.33;65.71;101987.56;5054635;28;20132;-79
2021/11/12 05:44:25;;;;;;;0.10;0.10;;;;;;;9.23;65.95;102001.63;5053593;28;20095;-81
2021/11/12 05:49:54;;;;;;;0.60;0.60;;;;;;;9.19;66.02;101999.84;5118320;27;20439;-78
2021/11/12 05:55:06;;;;;;;0.10;0.10;;;;;;;9.16;66.10;102000.72;5102876;28;20119;-78
2021/11/12 05:55:09;;;;;;;5.18;3.78;;;;;;;9.11;66.18;102004.19;5105425;28;20036;-79
2021/11/12 05:57:38;;;;;;;2.88;2.67;;;;;;;9.07;65.89;101985.69;5098419;28;20711;-79
2021/11/12 06:00:08;;;;;;;0.77;0.65;;;;;;;9.04;66.09;101979.50;5103589;28;21654;-78
2021/11/12 06:02:35;;;;;;;0.75;0.75;;;;;;;8.98;65.69;101963.63;5103296;28;20047;-77
2021/11/12 06:05:01;;;;;;;0.28;0.28;;;;;;;8.88;65.87;101957.41;5106618;28;20110;-76
2021/11/12 06:07:28;;;;;;;0.43;0.43;;;;;;;8.83;66.57;101944.16;5106608;28;20036;-80
2021/11/12 06:09:55;;;;;;;1.98;1.35;;;;;;;8.80;66.49;101937.97;5106613;28;20200;-79
2021/11/12 06:12:22;;;;;;;0.20;0.20;;;;;;;8.73;66.22;101934.41;5107191;28;20108;-79
2021/11/12 06:14:51;;;;;;;0.22;0.22;;;;;;;8.70;65.93;101930.00;5102693;28;20036;-81
2021/11/12 06:17:18;;;;;;;0.20;0.20;;;;;;;8.63;66.69;101925.56;5106649;28;20036;-79
2021/11/12 06:19:44;;;;;;;1.30;1.10;;;;;;;8.60;66.63;101928.19;5105870;28;20493;-79
2021/11/12 06:22:11;;;;;;;0.17;0.17;;;;;;;8.58;66.57;101927.28;5105731;28;20042;-77
2021/11/12 06:24:38;;;;;;;0.28;0.28;;;;;;;8.49;66.55;101927.25;5103106;28;20477;-81
2021/11/12 06:27:06;;;;;;;1.52;1.50;;;;;;;8.51;66.74;101921.09;5104831;28;20020;-78
2021/11/12 06:29:33;;;;;;;0.10;0.10;;;;;;;8.51;65.88;101926.38;5100990;28;20035;-80
2021/11/12 06:32:00;;;;;;;5.13;1.20;;;;;;;8.46;66.39;101916.63;5101286;28;20509;-78
2021/11/12 06:34:26;;;;;;;0.47;0.47;;;;;;;8.35;66.38;101898.06;5099621;28;20081;-78
2021/11/12 06:36:53;;;;;;;0.40;0.40;;;;;;;8.22;66.42;101891.81;5098694;28;20040;-79
2021/11/12 06:39:20;;;;;;;1.00;1.00;;;;;;;8.24;65.60;101905.94;5103717;28;20115;-82
2021/11/12 06:50:04;;;;;;;1.25;1.20;;;;;;;8.08;66.79;101921.63;5067468;28;20048;-85
2021/11/12 06:52:31;;;;;;;1.08;1.05;;;;;;;8.08;66.74;101923.41;5050724;28;20055;-85
2021/11/12 06:55:01;;;;;;;0.20;0.20;;;;;;;8.06;66.33;101918.13;5051202;28;20453;-86
2021/11/12 06:57:29;;;;;;;0.30;0.30;;;;;;;8.04;66.80;101919.88;5050914;28;20056;-86
2021/11/12 06:59:55;;;;;;;0.20;0.20;;;;;;;7.98;66.50;101917.16;5050725;28;20567;-86
2021/11/12 07:02:24;;;;;;;1.10;1.08;;;;;;;8.02;66.71;101921.59;5050982;28;20041;-82
2021/11/12 07:04:50;;;;;;;0.20;0.20;;;;;;;7.99;66.55;101926.88;5051163;28;20059;-85
2021/11/12 07:07:17;;;;;;;0.20;0.20;;;;;;;8.00;66.37;101915.44;5050397;28;20057;-85
2021/11/12 07:09:46;;;;;;;0.10;0.10;;;;;;;8.02;66.80;101918.09;5050435;28;20068;-84
2021/11/12 07:12:13;;;;;;;0.20;0.20;;;;;;;8.05;66.67;101929.56;5050315;28;20121;-84
2021/11/12 07:14:39;;;;;;;0.50;0.50;;;;;;;8.02;66.38;101924.22;5050655;28;20056;-83
2021/11/12 07:17:06;;;;;;;0.90;0.57;;;;;;;8.00;66.55;101923.34;5050815;28;20033;-83
2021/11/12 07:19:32;;;;;;;0.13;0.13;;;;;;;7.98;66.20;101909.25;5050886;28;20021;-84
2021/11/12 07:21:59;;;;;;;0.38;0.38;;;;;;;7.88;66.57;101912.69;5050668;28;20112;-83
2021/11/12 07:24:26;;;;;;;0.17;0.17;;;;;;;7.87;66.42;101909.16;5050272;28;20037;-83
2021/11/12 07:26:52;;;;;;;0.20;0.20;;;;;;;7.86;65.71;101912.69;5050451;28;20029;-84
2021/11/12 07:29:20;;;;;;;0.17;0.17;;;;;;;7.82;66.47;101923.19;5050349;28;20029;-83
2021/11/12 07:31:46;;;;;;;0.10;0.10;;;;;;;7.84;66.13;101922.34;5050269;28;20025;-83
2021/11/12 07:34:13;;;;;;;0.20;0.20;;;;;;;7.80;66.68;101925.84;5050190;28;20029;-83
2021/11/12 07:36:46;;;;;;;1.70;1.60;;;;;;;7.82;66.48;101928.47;5050538;28;20026;-84
2021/11/12 07:39:20;;;;;;;0.77;0.77;;;;;;;7.89;66.79;101919.75;5049434;28;20038;-85
2021/11/12 07:47:26;;;;;;;1.08;1.00;;;;;;;8.00;67.25;101910.16;5091102;27;20402;-84
2021/11/12 07:49:56;;;;;;;2.30;1.52;;;;;;;8.09;66.82;101904.06;5068333;28;20029;-84
2021/11/12 07:52:27;;;;;;;0.98;0.98;;;;;;;8.18;67.32;101892.69;5050821;28;20075;-84
2021/11/12 07:54:53;;;;;;;0.35;0.35;;;;;;;8.25;67.78;101894.50;5050715;28;20467;-84
2021/11/12 07:57:20;;;;;;;0.20;0.20;;;;;;;8.30;67.94;101884.84;5049566;28;20052;-85
2021/11/12 07:59:46;;;;;;;1.17;1.13;;;;;;;8.42;67.99;101881.38;5049135;28;20045;-85
2021/11/12 08:02:15;;;;;;;0.65;0.65;;;;;;;8.46;67.55;101864.72;5050513;28;20052;-84
2021/11/12 08:04:42;;;;;;;2.15;2.05;;;;;;;8.45;67.67;101857.66;5050460;28;20430;-83
2021/11/12 08:07:10;;;;;;;0.65;0.65;;;;;;;8.55;68.38;101858.63;5051364;28;20104;-84
2021/11/12 08:09:52;;;;;;;2.00;1.92;;;;;;;8.63;68.07;101854.22;5050113;28;20036;-84
2021/11/12 08:12:26;;;;;;;0.32;0.32;;;;;;;8.71;67.63;101855.16;5050818;28;20380;-82
2021/11/12 08:17:50;;;;;;;1.05;1.05;;;;;;;8.82;68.12;101847.28;5049669;28;20549;-84
2021/11/12 08:20:24;;;;;;;9.25;3.78;;;;;;;8.83;67.86;101853.44;5048489;28;20033;-84
2021/11/12 08:22:59;;;;;;;1.95;1.85;;;;;;;8.95;68.02;101853.47;5050132;28;20022;-83
2021/11/12 08:25:36;;;;;;;0.30;0.30;;;;;;;9.01;67.62;101853.50;5049787;28;20510;-85
2021/11/12 08:33:42;;;;;;;0.57;0.57;;;;;;;9.05;67.87;101839.38;5090697;28;20463;-83
2021/11/12 08:41:47;;;;;;;0.95;0.95;;;;;;;9.01;67.49;101827.06;5073351;28;20409;-84
2021/11/12 08:47:05;;;;;;;2.30;1.38;;;;;;;9.19;67.62;101835.91;5090731;27;20414;-85
2021/11/12 08:49:33;;;;;;;0.20;0.20;;;;;;;9.23;67.47;101821.78;5070979;28;20036;-85
2021/11/12 08:52:01;;;;;;;0.30;0.30;;;;;;;9.26;67.70;101823.56;5051039;28;20120;-84
2021/11/12 08:54:32;;;;;;;0.20;0.20;;;;;;;9.29;67.30;101819.16;5050781;28;20531;-84
2021/11/12 08:56:58;;;;;;;1.38;1.38;;;;;;;9.32;67.43;101821.81;5050966;28;20033;-85
2021/11/12 08:59:25;;;;;;;0.63;0.55;;;;;;;9.33;67.41;101820.94;5050622;28;20105;-85
2021/11/12 09:01:52;;;;;;;2.35;1.95;;;;;;;9.41;67.15;101825.34;5050108;28;20369;-83
2021/11/12 09:04:19;;;;;;;6.40;2.25;;;;;;;9.42;67.15;101819.16;5050412;28;20132;-85
2021/11/12 09:06:46;;;;;;;2.38;2.28;;;;;;;9.40;67.01;101821.81;5050282;28;20065;-84
2021/11/12 09:09:12;;;;;;;0.82;0.80;;;;;;;9.43;66.84;101811.22;5050683;28;20051;-84
2021/11/12 09:11:39;;;;;;;0.13;0.13;;;;;;;9.44;66.73;101810.34;5050319;28;20033;-83
2021/11/12 09:14:09;;;;;;;0.90;0.90;;;;;;;9.45;66.54;101813.91;5049775;28;20496;-84
2021/11/12 09:16:37;;;;;;;1.90;1.83;;;;;;;9.50;66.54;101805.06;5050510;28;20345;-85
2021/11/12 09:19:04;;;;;;;1.13;1.13;;;;;;;9.50;66.45;101802.41;5050265;28;20029;-83
2021/11/12 09:21:33;;;;;;;0.10;0.10;;;;;;;9.61;66.96;101806.81;5049744;28;20033;-83
2021/11/12 09:23:59;;;;;;;0.20;0.20;;;;;;;9.59;66.53;101801.53;5049947;28;20489;-84
2021/11/12 09:26:26;;;;;;;2.42;2.13;;;;;;;9.59;66.02;101795.38;5050103;28;20032;-84
2021/11/12 09:28:52;;;;;;;0.20;0.20;;;;;;;9.55;65.59;101794.47;5050385;28;20468;-84
2021/11/12 09:31:20;;;;;;;0.65;0.65;;;;;;;9.60;65.93;101782.13;5050108;28;20476;-84
2021/11/12 09:33:47;;;;;;;0.35;0.35;;;;;;;9.51;65.93;101782.16;5050319;28;20036;-84
2021/11/12 09:36:13;;;;;;;0.80;0.80;;;;;;;9.57;65.80;101775.94;5050057;28;20021;-84
2021/11/12 09:38:41;;;;;;;0.40;0.40;;;;;;;9.59;66.01;101767.13;5050024;28;20061;-84
2021/11/12 09:41:10;;;;;;;0.52;0.52;;;;;;;9.63;65.78;101774.19;5065898;22;20067;-90
2021/11/12 09:43:37;;;;;;;0.85;0.85;;;;;;;9.68;65.45;101769.78;5051157;28;20076;-86
2021/11/12 09:46:05;;;;;;;1.05;1.05;;;;;;;9.71;65.75;101761.81;5051160;28;20033;-86
2021/11/12 09:48:31;;;;;;;0.95;0.95;;;;;;;9.60;65.01;101749.50;5050243;28;20033;-87
2021/11/12 09:50:59;;;;;;;0.20;0.20;;;;;;;9.76;65.50;101755.63;5050139;28;20040;-87
2021/11/12 09:53:25;;;;;;;0.85;0.85;;;;;;;9.79;64.83;101760.94;5050357;28;20025;-82
2021/11/12 09:55:54;;;;;;;0.50;0.50;;;;;;;9.87;65.34;101761.81;5049687;28;20392;-85
2021/11/12 09:58:21;;;;;;;0.55;0.55;;;;;;;9.83;64.92;101770.63;5036591;28;20525;-86
2021/11/12 10:00:54;;;;;;;0.50;0.50;;;;;;;9.96;64.31;101772.38;5037193;28;20120;-83
2021/11/12 10:03:21;;;;;;;1.05;0.98;;;;;;;9.98;64.09;101769.72;5036855;28;20079;-83
2021/11/12 10:05:49;;;;;;;3.47;3.22;;;;;;;9.95;64.11;101762.66;5036724;28;20421;-84
2021/11/12 10:08:37;;;;;;;0.93;0.93;;;;;;;10.07;64.39;101764.41;5036813;28;20034;-86
2021/11/12 10:11:07;;;;;;;0.30;0.30;;;;;;;10.13;64.21;101747.59;5036637;28;20040;-82
2021/11/12 10:13:37;;;;;;;1.70;1.58;;;;;;;10.12;64.29;101751.13;5037326;28;20037;-88
2021/11/12 10:19:18;;;;;;;0.80;0.80;;;;;;;10.31;63.99;101749.31;5091693;27;20392;-81
2021/11/12 10:29:53;;;;;;;0.20;0.20;;;;;;;10.59;63.07;101739.50;5131185;27;20951;-79
2021/11/12 10:32:24;;;;;;;2.13;2.03;;;;;;;10.64;63.02;101723.53;5111994;28;20077;-78
2021/11/12 10:34:52;;;;;;;1.17;1.17;;;;;;;10.71;63.39;101724.41;5111545;28;20081;-78
2021/11/12 10:37:21;;;;;;;1.88;1.77;;;;;;;10.64;62.64;101715.59;5111929;28;20024;-80
2021/11/12 10:39:52;;;;;;;2.28;0.57;;;;;;;10.73;63.04;101706.69;5112117;28;20035;-78
2021/11/12 10:42:22;;;;;;;0.30;0.30;;;;;;;10.71;62.89;101705.84;5111780;28;20059;-79
2021/11/12 10:44:53;;;;;;;1.38;1.27;;;;;;;10.80;63.08;101701.38;5111560;28;20390;-80
2021/11/12 10:47:21;;;;;;;0.43;0.43;;;;;;;10.86;62.96;101692.47;5111887;28;20451;-82
2021/11/12 10:49:49;;;;;;;0.40;0.40;;;;;;;10.91;63.15;101692.44;5111557;28;20522;-79
2021/11/12 10:52:25;;;;;;;10.75;3.35;;;;;;;10.98;63.06;101686.22;5111757;28;20455;-79
2021/11/12 10:55:14;;;;;;;1.75;1.65;;;;;;;11.18;62.20;101678.06;5111785;28;20059;-80
2021/11/12 10:57:48;;;;;;;1.30;1.20;;;;;;;11.24;63.04;101666.50;5111015;28;20075;-79
2021/11/12 11:03:02;;;;;;;0.22;0.22;;;;;;;11.61;62.23;101644.91;5091644;28;20910;-79
2021/11/12 11:05:32;;;;;;;0.45;0.45;;;;;;;11.73;60.87;101646.53;5071053;28;20032;-79
2021/11/12 11:08:02;;;;;;;0.75;0.70;;;;;;;11.85;60.45;101637.53;5071270;28;20107;-80
2021/11/12 11:13:11;;;;;;;0.10;0.10;;;;;;;12.02;60.41;101640.03;5090780;27;20435;-82
2021/11/12 11:15:58;;;;;;;0.10;0.10;;;;;;;12.04;59.02;101646.19;5070682;28;20060;-83
2021/11/12 11:24:08;;;;;;;2.75;2.55;;;;;;;12.13;59.59;101623.03;5110668;27;20720;-83
2021/11/12 11:26:44;;;;;;;0.20;0.20;;;;;;;12.21;59.15;101617.63;5111427;28;20032;-83
2021/11/12 11:29:13;;;;;;;0.80;0.80;;;;;;;12.23;58.87;101615.81;5111018;28;20580;-83
2021/11/12 11:31:40;;;;;;;2.63;2.13;;;;;;;12.28;58.90;101605.97;5111345;28;20062;-83
2021/11/12 11:34:06;;;;;;;0.80;0.80;;;;;;;12.26;58.73;101610.47;5110993;28;20478;-83
2021/11/12 11:36:36;;;;;;;2.60;2.00;;;;;;;12.22;58.66;101600.75;5111681;28;20050;-83
2021/11/12 11:39:08;;;;;;;0.82;0.82;;;;;;;12.27;59.07;101592.72;5111259;28;20469;-83
2021/11/12 11:41:35;;;;;;;1.85;1.75;;;;;;;12.28;59.21;101589.16;5110662;28;20394;-83
2021/11/12 11:44:01;;;;;;;2.03;1.92;;;;;;;12.26;59.10;101588.31;5111211;28;20024;-83
2021/11/12 11:46:32;;;;;;;0.77;0.77;;;;;;;12.29;58.70;101582.97;5111187;28;20083;-82
2021/11/12 11:49:02;;;;;;;0.75;0.75;;;;;;;12.23;59.01;101573.28;5111173;28;20024;-83
2021/11/12 11:51:32;;;;;;;0.57;0.57;;;;;;;12.22;59.02;101571.53;5110922;28;20031;-83
2021/11/12 11:54:08;;;;;;;5.82;3.40;;;;;;;12.20;57.93;101581.31;5110690;28;20024;-83
2021/11/12 11:59:29;;;;;;;0.90;0.90;;;;;;;12.14;58.58;101574.31;5110852;27;20388;-84
2021/11/12 12:01:57;;;;;;;1.30;1.30;;;;;;;11.84;59.34;101567.63;5110629;28;20111;-84
2021/11/12 12:04:27;;;;;;;0.60;0.60;;;;;;;11.76;59.90;101564.19;5111495;28;20035;-84
2021/11/12 12:07:17;;;;;;;3.60;1.70;;;;;;;11.76;59.83;101553.56;5111216;28;20028;-84
2021/11/12 12:15:31;;;;;;;0.95;0.95;;;;;;;12.17;58.32;101544.16;5090783;28;20475;-83
2021/11/12 12:18:18;;;;;;;2.72;1.67;;;;;;;12.23;58.84;101538.75;5071231;28;20051;-83
2021/11/12 12:21:21;;;;;;;4.90;1.58;;;;;;;12.18;58.75;101534.44;5062075;28;20036;-84
2021/11/12 12:33:04;;;;;;;3.00;2.05;;;;;;;12.21;58.59;101502.47;5049936;28;20033;-83
2021/11/12 13:26:07;;;;;;;2.50;1.35;;;;;;;12.59;57.96;101403.47;5091239;28;20187;-83
2021/11/12 13:28:35;;;;;;;1.85;0.75;;;;;;;12.64;57.90;101400.72;5069875;28;20025;-84
2021/11/12 13:36:29;;;;;;;0.20;0.20;;;;;;;12.73;57.38;101391.69;5090751;27;20411;-83
2021/11/12 13:44:30;;;;;;;0.17;0.17;;;;;;;12.91;57.63;101372.69;5090731;28;20475;-84
2021/11/12 13:47:04;;;;;;;0.73;0.52;;;;;;;12.97;57.21;101365.50;5071087;28;20037;-83
2021/11/12 13:49:35;;;;;;;0.40;0.40;;;;;;;12.96;56.94;101356.66;5071056;28;20044;-83
2021/11/12 13:55:07;;;;;;;5.18;2.25;;;;;;;13.09;56.58;101349.28;5110642;27;20120;-85
2021/11/12 13:57:34;;;;;;;0.70;0.52;;;;;;;13.07;56.17;101351.06;5111645;28;20168;-84
2021/11/12 14:05:59;;;;;;;0.40;0.40;;;;;;;13.08;56.47;101355.50;5027215;28;20125;-85
2021/11/12 14:08:40;;;;;;;0.68;0.68;;;;;;;13.19;55.91;101344.63;5026594;28;20042;-85
2021/11/12 14:11:25;;;;;;;0.20;0.20;;;;;;;13.24;56.50;101354.22;5028127;28;20346;-83
2021/11/12 14:13:56;;;;;;;0.80;0.80;;;;;;;13.19;56.66;101337.50;5027569;28;20425;-83
2021/11/12 14:16:32;;;;;;;0.45;0.45;;;;;;;13.20;56.21;101335.72;5027595;28;20030;-84
2021/11/12 14:19:23;;;;;;;0.10;0.10;;;;;;;13.19;56.17;101333.97;5027395;28;20030;-83
2021/11/12 14:24:42;;;;;;;0.77;0.77;;;;;;;13.17;56.52;101328.69;5090832;28;20442;-83
2021/11/12 14:30:26;;;;;;;0.80;0.80;;;;;;;13.19;56.25;101329.50;5111749;27;20381;-83
2021/11/12 14:35:49;;;;;;;0.10;0.10;;;;;;;13.11;56.66;101315.53;5110875;28;20391;-83
2021/11/12 14:38:35;;;;;;;0.20;0.20;;;;;;;13.09;56.36;101318.22;5111302;28;20088;-85
2021/11/12 14:44:26;;;;;;;2.78;1.95;;;;;;;13.01;56.75;101308.66;5090820;27;20798;-85
2021/11/12 14:49:33;;;;;;;0.10;0.10;;;;;;;12.93;57.63;101288.44;5091144;27;20389;-85
2021/11/12 14:52:11;;;;;;;0.40;0.40;;;;;;;12.97;57.33;101280.38;5053277;28;20123;-85
2021/11/12 14:54:46;;;;;;;1.08;0.95;;;;;;;12.94;57.39;101292.81;5050946;28;20033;-85
2021/11/12 14:57:27;;;;;;;0.13;0.13;;;;;;;12.91;57.06;101284.94;5051165;28;20044;-85
2021/11/12 15:00:05;;;;;;;0.65;0.65;;;;;;;12.95;57.29;101299.91;5050795;28;20026;-84
2021/11/12 15:02:33;;;;;;;0.45;0.45;;;;;;;12.94;56.76;101305.25;5050615;28;20029;-84
2021/11/12 15:04:59;;;;;;;0.20;0.20;;;;;;;12.93;57.32;101309.72;5050786;28;20061;-85
2021/11/12 15:07:29;;;;;;;1.27;1.27;;;;;;;12.92;57.26;101307.06;5050699;28;20452;-84
2021/11/12 15:09:59;;;;;;;0.20;0.20;;;;;;;12.88;57.08;101300.94;5051493;28;20364;-85
2021/11/12 15:12:27;;;;;;;0.10;0.10;;;;;;;12.80;57.08;101305.56;5052182;28;20029;-85
2021/11/12 15:14:57;;;;;;;0.75;0.75;;;;;;;12.83;57.87;101300.19;5051261;28;20029;-85
2021/11/12 15:17:24;;;;;;;1.02;1.02;;;;;;;12.82;57.94;101298.41;5050460;28;20029;-84
2021/11/12 15:19:51;;;;;;;0.10;0.10;;;;;;;12.81;58.01;101295.81;5050802;28;20372;-85
2021/11/12 15:22:34;;;;;;;0.47;0.47;;;;;;;12.76;57.89;101280.84;5048951;28;20043;-84
2021/11/12 15:25:11;;;;;;;0.43;0.43;;;;;;;12.73;57.99;101270.25;5050919;28;20120;-85
2021/11/12 15:30:34;;;;;;;0.10;0.10;;;;;;;12.66;58.47;101252.72;5085830;27;20957;-83
2021/11/12 15:33:04;;;;;;;1.30;1.27;;;;;;;12.68;57.97;101255.34;5071071;28;20032;-85
2021/11/12 15:35:32;;;;;;;1.13;1.10;;;;;;;12.76;58.03;101256.00;5069842;28;20040;-84
2021/11/12 15:38:05;;;;;;;0.63;0.63;;;;;;;12.68;57.90;101258.84;5070919;28;20460;-85
2021/11/12 15:40:37;;;;;;;0.32;0.32;;;;;;;12.69;57.76;101257.09;5081614;22;20033;-84
2021/11/12 15:43:12;;;;;;;0.25;0.25;;;;;;;12.69;58.44;101246.44;5052557;28;20033;-85
2021/11/12 15:48:21;;;;;;;0.60;0.60;;;;;;;12.59;58.22;101243.97;5092106;27;20790;-82
2021/11/12 15:53:44;;;;;;;0.47;0.47;;;;;;;12.64;58.51;101251.00;5091603;27;20418;-81
2021/11/12 15:56:29;;;;;;;0.20;0.20;;;;;;;12.62;58.20;101254.56;5071185;28;20052;-83
2021/11/12 15:59:08;;;;;;;0.10;0.10;;;;;;;12.60;58.14;101251.03;5071483;28;20029;-84
2021/11/12 16:10:00;;;;;;;1.55;0.82;;;;;;;12.71;58.29;101232.22;5070566;28;20045;-84
2021/11/12 16:12:32;;;;;;;0.50;0.50;;;;;;;12.78;58.89;101232.94;5051725;28;20132;-85
2021/11/12 16:26:02;;;;;;;0.75;0.70;;;;;;;12.89;58.28;101251.31;5112123;27;20873;-83
2021/11/12 16:28:35;;;;;;;0.98;0.95;;;;;;;12.88;58.37;101257.53;5111789;28;20030;-82
2021/11/12 16:31:03;;;;;;;0.10;0.10;;;;;;;12.94;58.74;101265.38;5111646;28;20039;-83
2021/11/12 16:33:30;;;;;;;1.40;1.10;;;;;;;12.73;59.70;101256.09;5111758;28;20040;-80
2021/11/12 16:36:02;;;;;;;31.30;1.60;;;;;;;12.75;59.60;101263.13;5111563;28;20024;-80
2021/11/12 16:38:32;;;;;;;0.63;0.63;;;;;;;12.54;59.60;101261.81;5111439;28;20020;-85
2021/11/12 16:41:29;;;;;;;0.55;0.55;;;;;;;12.63;59.69;101247.44;5112258;28;20024;-83
2021/11/12 16:46:51;;;;;;;0.50;0.50;;;;;;;12.66;60.02;101241.19;5092213;27;20410;-85
2021/11/12 16:49:28;;;;;;;0.27;0.27;;;;;;;12.59;61.08;101232.47;5071372;28;20068;-83
2021/11/12 16:52:02;;;;;;;0.10;0.10;;;;;;;12.53;61.10;101237.94;5055304;28;20282;-84
2021/11/12 16:57:22;;;;;;;0.10;0.10;;;;;;;12.55;60.62;101237.00;5092784;27;20919;-85
2021/11/12 17:02:37;;;;;;;0.20;0.20;;;;;;;12.58;61.43;101236.91;5111580;27;20890;-84
2021/11/12 17:05:24;;;;;;;1.50;0.55;;;;;;;12.57;61.49;101234.28;5112279;28;20437;-85
2021/11/12 17:08:03;;;;;;;0.25;0.25;;;;;;;12.61;61.04;101234.19;5111206;28;20063;-85
2021/11/12 17:13:30;;;;;;;1.42;0.75;;;;;;;12.58;61.13;101207.66;5091212;27;20392;-84
2021/11/12 17:46:36;;;;;;;0.98;0.75;;;;;;;12.25;62.16;101196.88;5070853;28;20040;-83
2021/11/12 17:49:13;;;;;;;0.30;0.30;;;;;;;12.18;62.51;101203.22;5071285;28;20029;-83
2021/11/12 18:08:26;;;;;;;3.95;1.08;;;;;;;12.11;63.04;101185.66;5091094;27;20471;-87
2021/11/12 21:48:31;;;;;;;0.00;0.00;;;;;;;12.60;63.85;101030.41;5091975;27;20460;-85
2021/11/12 21:50:59;;;;;;;0.40;0.40;;;;;;;12.70;63.89;101027.53;5064382;28;20095;-83